Time;durP1;ratioP1;P1;durP2;ratioP2;P2;SDS_P1;SDS_P2;PMS_P1;PMS_P2;Temp;Humidity;BMP_temperature;BMP_pressure;BME280_temperature;BME280_humidity;BME280_pressure;Samples;Min_cycle;Max_cycle;Signal;HPM_P1;HPM_P2
2022/02/10 00:20:54;;;;;;;10.40;4.93;;;;;;;;;;4998435;28;20026;-69
2022/02/10 00:36:37;;;;;;;14.70;4.60;;;;;;;;;;5005238;28;20057;-68
2022/02/10 00:39:25;;;;;;;9.07;4.80;;;;;;;;;;4995610;28;20023;-67
2022/02/10 00:41:51;;;;;;;12.27;5.00;;;;;;;;;;4995015;28;20031;-67
2022/02/10 00:44:17;;;;;;;9.18;4.95;;;;;;;;;;4995201;28;20100;-67
2022/02/10 00:46:43;;;;;;;10.95;4.35;;;;;;;;;;4995279;28;20058;-68
2022/02/10 00:49:09;;;;;;;9.07;4.80;;;;;;;;;;4995269;28;20030;-67
2022/02/10 00:51:36;;;;;;;8.82;4.40;;;;;;;;;;4983607;28;20056;-68
2022/02/10 00:54:02;;;;;;;10.73;4.70;;;;;;;;;;4975629;28;20525;-68
2022/02/10 00:56:28;;;;;;;11.85;5.22;;;;;;;;;;4975612;28;20062;-67
2022/02/10 00:59:09;;;;;;;8.05;5.10;;;;;;;;;;4975550;28;20051;-68
2022/02/10 01:07:13;;;;;;;8.25;4.90;;;;;;;;;;4975355;28;20033;-68
2022/02/10 01:12:31;;;;;;;11.65;5.32;;;;;;;;;;4974106;28;20042;-68
2022/02/10 01:31:26;;;;;;;8.23;4.80;;;;;;;;;;4973906;28;20053;-67
2022/02/10 01:33:52;;;;;;;6.93;5.20;;;;;;;;;;4974722;28;20030;-67
2022/02/10 01:36:18;;;;;;;12.30;5.28;;;;;;;;;;4974729;28;20039;-67
2022/02/10 01:38:44;;;;;;;21.20;5.30;;;;;;;;;;4974778;28;20098;-67
2022/02/10 02:05:41;;;;;;;12.02;5.88;;;;;;;;;;4973531;28;20137;-67
2022/02/10 02:08:08;;;;;;;8.80;5.35;;;;;;;;;;4974267;28;20038;-67
2022/02/10 02:10:34;;;;;;;8.02;5.10;;;;;;;;;;4972510;28;20397;-67
2022/02/10 02:13:04;;;;;;;7.90;5.13;;;;;;;;;;4974081;28;20474;-67
2022/02/10 02:15:30;;;;;;;8.32;5.30;;;;;;;;;;4973483;28;20037;-67
2022/02/10 02:17:56;;;;;;;7.15;4.85;;;;;;;;;;4974118;28;20023;-67
2022/02/10 02:20:22;;;;;;;10.85;5.75;;;;;;;;;;4973524;28;20105;-66
2022/02/10 02:22:48;;;;;;;9.32;5.32;;;;;;;;;;4973677;28;20070;-66
2022/02/10 02:25:14;;;;;;;9.45;5.10;;;;;;;;;;4973124;28;20057;-66
2022/02/10 02:27:44;;;;;;;8.57;5.47;;;;;;;;;;4973966;28;20082;-67
2022/02/10 02:30:19;;;;;;;12.55;5.25;;;;;;;;;;4973862;28;20413;-67
2022/02/10 02:33:05;;;;;;;9.25;6.40;;;;;;;;;;4973919;28;20665;-68
2022/02/10 03:08:37;;;;;;;9.88;7.10;;;;;;;;;;4993121;28;20130;-67
2022/02/10 03:11:13;;;;;;;6.70;5.60;;;;;;;;;;4975018;28;20030;-67
2022/02/10 03:13:47;;;;;;;13.23;5.60;;;;;;;;;;4992353;28;20489;-68
2022/02/10 03:19:26;;;;;;;14.90;5.65;;;;;;;;;;4992867;28;20045;-67
2022/02/10 04:06:04;;;;;;;9.70;5.40;;;;;;;;;;4979366;28;20581;-67
2022/02/10 04:16:11;;;;;;;13.57;4.47;;;;;;;;;;4995714;28;20033;-67
2022/02/10 04:59:17;;;;;;;8.40;3.17;;;;;;;;;;5060492;28;20495;-68
2022/02/10 05:20:26;;;;;;;4.32;2.22;;;;;;;;;;5058732;28;20063;-67
2022/02/10 05:33:57;;;;;;;3.83;1.55;;;;;;;;;;5064775;28;20069;-68
2022/02/10 05:36:26;;;;;;;8.55;1.77;;;;;;;;;;5042925;28;20029;-68
2022/02/10 05:39:07;;;;;;;4.30;1.55;;;;;;;;;;5038646;28;20419;-67
2022/02/10 05:57:42;;;;;;;3.22;1.30;;;;;;;;;;5035584;28;20507;-67
2022/02/10 06:49:59;;;;;;;6.63;1.10;;;;;;;;;;5055366;28;20052;-74
2022/02/10 06:55:28;;;;;;;3.35;0.98;;;;;;;;;;5011020;28;20051;-79
2022/02/10 07:03:52;;;;;;;3.47;1.15;;;;;;;;;;5055812;28;20146;-69
2022/02/10 07:09:34;;;;;;;7.22;1.10;;;;;;;;;;5022053;28;20049;-75
2022/02/10 07:43:19;;;;;;;5.53;1.20;;;;;;;;;;5049316;28;20404;-81
2022/02/10 07:54:08;;;;;;;4.53;0.85;;;;;;;;;;5043854;28;20048;-75
2022/02/10 07:56:52;;;;;;;5.75;1.20;;;;;;;;;;5035814;28;20017;-76
2022/02/10 08:17:59;;;;;;;5.07;1.13;;;;;;;;;;5053507;28;20036;-78
2022/02/10 08:49:45;;;;;;;2.28;1.10;;;;;;;;;;5045094;28;20052;-77
2022/02/10 08:58:17;;;;;;;1.45;0.80;;;;;;;;;;5048159;28;20037;-73
2022/02/10 09:11:27;;;;;;;10.05;4.22;;;;;;;;;;5049856;28;20032;-71
2022/02/10 09:14:15;;;;;;;11.80;5.00;;;;;;;;;;5045664;28;20028;-69
2022/02/10 09:53:33;;;;;;;14.77;5.83;;;;;;;;;;5035841;28;20067;-72
2022/02/10 09:57:56;;;;;;;12.30;4.40;;;;;;;;;;5055733;28;20108;-73
2022/02/10 10:00:38;;;;;;;12.02;4.70;;;;;;;;;;5035982;28;20292;-74
2022/02/10 10:03:11;;;;;;;17.40;4.65;;;;;;;;;;5035837;28;20059;-73
2022/02/10 10:05:43;;;;;;;9.35;4.55;;;;;;;;;;5036368;28;20061;-73
2022/02/10 10:11:40;;;;;;;7.90;3.80;;;;;;;;;;5036114;28;20029;-72
2022/02/10 10:13:59;;;;;;;10.30;3.60;;;;;;;;;;5041776;28;20065;-74
2022/02/10 10:21:50;;;;;;;7.90;2.70;;;;;;;;;;5035774;28;20029;-71
2022/02/10 10:27:42;;;;;;;4.97;1.98;;;;;;;;;;4956475;29;20038;-71
2022/02/10 10:52:17;;;;;;;15.07;1.65;;;;;;;;;;5051934;28;20031;-70
2022/02/10 10:54:43;;;;;;;5.40;1.58;;;;;;;;;;5050057;28;20142;-69
2022/02/10 10:57:23;;;;;;;7.22;1.45;;;;;;;;;;5025418;28;20025;-71
2022/02/10 11:38:24;;;;;;;6.53;1.50;;;;;;;;;;5048737;28;20099;-70
2022/02/10 13:23:36;;;;;;;6.25;1.58;;;;;;;;;;5014413;28;20421;-68
2022/02/10 13:35:27;;;;;;;7.28;1.48;;;;;;;;;;5045490;28;20533;-68
2022/02/10 13:49:02;;;;;;;4.30;1.35;;;;;;;;;;5049423;28;20055;-68
2022/02/10 14:13:23;;;;;;;8.90;1.85;;;;;;;;;;5053339;28;20117;-73
2022/02/10 14:21:00;;;;;;;11.43;1.90;;;;;;;;;;5050506;28;20427;-73
2022/02/10 14:28:31;;;;;;;12.80;2.13;;;;;;;;;;5051967;28;20068;-68
2022/02/10 14:30:58;;;;;;;18.95;1.80;;;;;;;;;;5044507;28;20075;-70
2022/02/10 14:33:30;;;;;;;15.65;2.17;;;;;;;;;;5048254;28;20488;-72
2022/02/10 14:41:49;;;;;;;14.82;2.42;;;;;;;;;;5054290;28;20032;-70
2022/02/10 15:31:40;;;;;;;15.65;2.53;;;;;;;;;;5033531;28;20423;-65
2022/02/10 15:33:30;;;;;;;9.57;2.15;;;;;;;;;;5051282;28;20032;-68
2022/02/10 15:54:22;;;;;;;14.65;2.10;;;;;;;;;;5047383;28;20037;-68
2022/02/10 16:18:32;;;;;;;13.65;3.42;;;;;;;;;;5042701;28;20125;-78
2022/02/10 16:21:01;;;;;;;;;;;;;;;;;;5049772;28;20017;-83
2022/02/10 16:23:32;;;;;;;10.70;2.97;;;;;;;;;;5049787;28;19908;-76
2022/02/10 16:26:13;;;;;;;15.75;2.40;;;;;;;;;;5035283;28;20373;-76
2022/02/10 16:28:41;;;;;;;20.35;2.65;;;;;;;;;;5052662;28;20067;-72
2022/02/10 16:31:08;;;;;;;13.90;2.10;;;;;;;;;;5032332;28;20427;-74
2022/02/10 16:33:35;;;;;;;21.40;2.33;;;;;;;;;;5032851;28;20032;-74
2022/02/10 16:36:04;;;;;;;9.07;2.47;;;;;;;;;;5033563;28;20469;-76
2022/02/10 16:38:30;;;;;;;18.85;2.28;;;;;;;;;;5052996;28;20045;-74
2022/02/10 16:40:56;;;;;;;9.80;1.60;;;;;;;;;;5050614;28;20107;-75
2022/02/10 16:43:25;;;;;;;12.35;2.15;;;;;;;;;;5049011;28;20097;-76
2022/02/10 16:45:54;;;;;;;7.28;2.10;;;;;;;;;;5050953;28;20032;-70
2022/02/10 16:48:20;;;;;;;12.02;1.75;;;;;;;;;;5052910;28;20376;-74
2022/02/10 16:50:48;;;;;;;13.45;1.98;;;;;;;;;;5035910;28;20029;-75
2022/02/10 16:53:19;;;;;;;9.50;1.92;;;;;;;;;;5054482;28;20466;-76
2022/02/10 16:55:57;;;;;;;15.85;1.38;;;;;;;;;;5035286;28;20040;-75
2022/02/10 16:58:36;;;;;;;9.38;1.75;;;;;;;;;;5052824;28;20032;-76
2022/02/10 17:03:51;;;;;;;5.78;1.38;;;;;;;;;;5049320;28;20044;-76
2022/02/10 17:25:11;;;;;;;7.10;1.40;;;;;;;;;;5042180;28;20080;-70
2022/02/10 17:27:41;;;;;;;8.00;1.80;;;;;;;;;;5041393;28;20028;-78
2022/02/10 17:46:13;;;;;;;8.07;1.58;;;;;;;;;;5053946;28;20036;-76
2022/02/10 17:53:54;;;;;;;4.93;1.10;;;;;;;;;;5037047;28;20029;-68
2022/02/10 17:56:20;;;;;;;4.13;1.13;;;;;;;;;;5040552;28;20029;-81
2022/02/10 17:58:46;;;;;;;6.57;1.50;;;;;;;;;;5048187;28;20025;-80
2022/02/10 18:01:12;;;;;;;4.10;1.13;;;;;;;;;;5039740;28;20131;-77
2022/02/10 18:03:38;;;;;;;6.53;1.33;;;;;;;;;;5050610;28;20037;-73
2022/02/10 18:08:36;;;;;;;6.43;1.80;;;;;;;;;;5055173;28;20484;-79
2022/02/10 18:16:58;;;;;;;14.25;2.03;;;;;;;;;;5037894;28;20029;-65
2022/02/10 18:19:21;;;;;;;43.13;2.47;;;;;;;;;;5029588;28;20496;-68
2022/02/10 18:27:04;;;;;;;26.98;2.22;;;;;;;;;;5045207;28;20166;-70
2022/02/10 18:29:48;;;;;;;25.58;2.13;;;;;;;;;;5048067;28;20017;-69
2022/02/10 19:10:02;;;;;;;35.97;2.00;;;;;;;;;;5034704;28;20044;-72
2022/02/10 19:12:30;;;;;;;27.05;2.10;;;;;;;;;;5034770;28;20025;-72
2022/02/10 19:15:15;;;;;;;18.60;1.70;;;;;;;;;;5054460;28;20079;-72
2022/02/10 19:17:41;;;;;;;24.38;2.05;;;;;;;;;;5046902;28;20013;-72
2022/02/10 19:20:07;;;;;;;16.70;1.73;;;;;;;;;;5046352;28;20048;-70
2022/02/10 19:22:33;;;;;;;9.85;1.73;;;;;;;;;;5039835;28;20055;-71
2022/02/10 19:24:59;;;;;;;17.80;2.13;;;;;;;;;;5038704;28;20033;-70
2022/02/10 19:27:25;;;;;;;17.38;1.80;;;;;;;;;;5045438;28;20036;-71
2022/02/10 19:29:57;;;;;;;12.63;1.25;;;;;;;;;;5048829;28;20025;-82
2022/02/10 19:32:24;;;;;;;21.17;2.17;;;;;;;;;;5034282;28;20017;-72
2022/02/10 19:34:52;;;;;;;11.23;1.40;;;;;;;;;;5054119;28;20265;-71
2022/02/10 19:37:19;;;;;;;15.93;1.80;;;;;;;;;;5053978;28;20040;-71
2022/02/10 19:39:52;;;;;;;17.55;1.52;;;;;;;;;;5053815;28;20048;-71
2022/02/10 19:42:18;;;;;;;14.80;1.92;;;;;;;;;;5054372;28;20036;-71
2022/02/10 19:44:44;;;;;;;13.45;1.80;;;;;;;;;;5053810;28;20025;-71
2022/02/10 19:47:10;;;;;;;5.70;1.33;;;;;;;;;;5054191;28;20368;-71
2022/02/10 19:49:39;;;;;;;6.53;1.25;;;;;;;;;;5053576;28;20457;-72
2022/02/10 19:52:06;;;;;;;16.20;1.60;;;;;;;;;;5054145;28;20128;-72
2022/02/10 19:54:37;;;;;;;11.38;1.60;;;;;;;;;;5053849;28;20039;-69
2022/02/10 19:57:04;;;;;;;12.80;1.65;;;;;;;;;;5053660;28;20520;-68
2022/02/10 19:59:31;;;;;;;9.25;1.75;;;;;;;;;;5053217;28;20380;-68
2022/02/10 20:01:57;;;;;;;6.20;1.83;;;;;;;;;;5053288;28;20104;-68
2022/02/10 20:04:24;;;;;;;8.43;2.10;;;;;;;;;;5053501;28;20055;-68
2022/02/10 20:06:51;;;;;;;20.83;1.90;;;;;;;;;;5026742;28;20039;-71
2022/02/10 20:09:18;;;;;;;4.28;1.52;;;;;;;;;;5038254;28;20036;-69
2022/02/10 20:11:46;;;;;;;8.20;1.77;;;;;;;;;;5033126;28;20021;-69
2022/02/10 20:14:12;;;;;;;4.32;1.67;;;;;;;;;;5015680;28;20063;-68
2022/02/10 20:16:38;;;;;;;12.23;2.00;;;;;;;;;;5033370;28;20062;-70
2022/02/10 20:19:08;;;;;;;6.32;1.90;;;;;;;;;;5015736;28;20392;-71
2022/02/10 20:21:34;;;;;;;5.85;2.03;;;;;;;;;;5039796;28;20041;-71
2022/02/10 20:24:00;;;;;;;7.60;1.83;;;;;;;;;;5045845;28;20078;-71
2022/02/10 20:26:26;;;;;;;9.38;1.95;;;;;;;;;;5031782;28;20032;-69
2022/02/10 20:28:52;;;;;;;6.18;1.85;;;;;;;;;;5033445;28;20029;-70
2022/02/10 20:31:18;;;;;;;7.07;1.95;;;;;;;;;;5023515;28;20025;-73
2022/02/10 20:33:45;;;;;;;6.28;1.50;;;;;;;;;;5047781;28;20028;-73
2022/02/10 20:36:11;;;;;;;6.78;1.60;;;;;;;;;;5034116;28;20028;-73
2022/02/10 20:38:41;;;;;;;9.30;1.85;;;;;;;;;;5033098;28;20038;-73
2022/02/10 20:41:12;;;;;;;12.77;1.98;;;;;;;;;;5044039;28;20021;-72
2022/02/10 20:43:38;;;;;;;8.02;1.90;;;;;;;;;;5039427;28;20021;-72
2022/02/10 20:46:08;;;;;;;6.43;1.42;;;;;;;;;;5053141;28;20021;-72
2022/02/10 20:48:36;;;;;;;9.35;1.48;;;;;;;;;;5035118;28;20029;-72
2022/02/10 20:51:04;;;;;;;5.65;1.70;;;;;;;;;;5049935;28;20021;-72
2022/02/10 20:53:31;;;;;;;8.40;1.70;;;;;;;;;;5045906;28;20041;-72
2022/02/10 20:56:02;;;;;;;7.97;1.70;;;;;;;;;;5052312;28;20024;-72
2022/02/10 20:58:29;;;;;;;5.97;1.88;;;;;;;;;;5031377;28;20037;-72
2022/02/10 21:00:58;;;;;;;3.80;1.40;;;;;;;;;;5033324;28;20025;-72
2022/02/10 21:03:27;;;;;;;5.95;1.60;;;;;;;;;;5033013;28;20022;-73
2022/02/10 21:06:04;;;;;;;5.90;1.70;;;;;;;;;;5019757;28;20040;-73
2022/02/10 21:10:56;;;;;;;6.65;1.60;;;;;;;;;;5053186;28;20043;-72
2022/02/10 21:13:23;;;;;;;5.25;1.52;;;;;;;;;;5052851;28;20025;-72
2022/02/10 21:15:49;;;;;;;4.88;1.15;;;;;;;;;;5053173;28;20052;-72
2022/02/10 21:18:17;;;;;;;10.38;1.77;;;;;;;;;;5052765;28;20411;-71
2022/02/10 21:20:44;;;;;;;5.70;1.30;;;;;;;;;;5035323;28;20025;-72
2022/02/10 21:23:23;;;;;;;4.85;1.25;;;;;;;;;;5038537;28;20032;-72
2022/02/10 21:25:52;;;;;;;5.18;1.30;;;;;;;;;;5056731;28;20541;-72
2022/02/10 21:28:22;;;;;;;6.07;1.33;;;;;;;;;;5038781;28;20025;-73
2022/02/10 21:30:51;;;;;;;4.47;1.50;;;;;;;;;;5056632;28;20033;-71
2022/02/10 21:39:06;;;;;;;7.28;1.40;;;;;;;;;;5055902;28;20088;-72
2022/02/10 21:55:34;;;;;;;7.65;1.52;;;;;;;;;;5043040;28;20135;-72
2022/02/10 22:18:52;;;;;;;9.27;1.50;;;;;;;;;;5035902;28;20037;-71
2022/02/10 22:21:29;;;;;;;;;;;;;;;;;;5018355;28;20370;-72
2022/02/10 22:23:55;;;;;;;6.22;1.45;;;;;;;;;;5017743;28;19959;-72
2022/02/10 22:26:28;;;;;;;9.07;1.42;;;;;;;;;;5017487;28;20021;-72
2022/02/10 22:29:09;;;;;;;7.40;1.30;;;;;;;;;;5036363;28;20025;-72
2022/02/10 22:34:13;;;;;;;5.28;1.35;;;;;;;;;;5035466;28;20155;-72
2022/02/10 22:36:42;;;;;;;17.65;1.42;;;;;;;;;;5017332;28;20112;-73
2022/02/10 22:39:09;;;;;;;5.03;1.30;;;;;;;;;;5034941;28;20060;-72
2022/02/10 22:41:35;;;;;;;13.18;1.45;;;;;;;;;;5034873;28;20048;-72
2022/02/10 22:44:03;;;;;;;7.63;1.30;;;;;;;;;;5054377;28;20025;-72
2022/02/10 22:46:30;;;;;;;5.50;1.52;;;;;;;;;;5036987;28;20166;-71
2022/02/10 22:48:56;;;;;;;4.55;1.30;;;;;;;;;;5054818;28;20028;-72
2022/02/10 22:51:24;;;;;;;9.85;1.65;;;;;;;;;;5037070;28;20032;-72
2022/02/10 22:53:50;;;;;;;9.25;1.40;;;;;;;;;;5055026;28;20029;-72
2022/02/10 22:56:28;;;;;;;4.32;1.33;;;;;;;;;;5055184;28;20032;-72
2022/02/10 22:58:55;;;;;;;13.57;1.67;;;;;;;;;;5033435;28;20029;-72
2022/02/10 23:01:21;;;;;;;9.95;1.88;;;;;;;;;;5035034;28;20164;-72
2022/02/10 23:03:47;;;;;;;13.07;1.50;;;;;;;;;;5035021;28;20113;-72
2022/02/10 23:06:14;;;;;;;4.63;1.30;;;;;;;;;;5034895;28;20022;-71
2022/02/10 23:08:41;;;;;;;6.97;1.23;;;;;;;;;;5034744;28;20032;-72
2022/02/10 23:11:07;;;;;;;4.40;1.13;;;;;;;;;;5035162;28;20056;-71
2022/02/10 23:13:35;;;;;;;5.68;1.48;;;;;;;;;;5034711;28;20099;-71
2022/02/10 23:16:03;;;;;;;8.15;1.20;;;;;;;;;;5028626;28;20044;-72
2022/02/10 23:18:30;;;;;;;6.75;1.27;;;;;;;;;;5016848;28;20036;-72
2022/02/10 23:20:57;;;;;;;8.60;1.73;;;;;;;;;;5034289;28;20041;-72
2022/02/10 23:23:24;;;;;;;4.70;1.50;;;;;;;;;;5016799;28;20108;-72
2022/02/10 23:25:51;;;;;;;7.82;1.40;;;;;;;;;;5034672;28;20036;-72
2022/02/10 23:28:23;;;;;;;5.65;1.30;;;;;;;;;;5016574;28;20103;-71
2022/02/10 23:30:49;;;;;;;5.93;1.55;;;;;;;;;;5034159;28;20028;-72
2022/02/10 23:38:17;;;;;;;5.07;1.40;;;;;;;;;;5034134;28;20103;-71
2022/02/10 23:43:29;;;;;;;4.93;1.30;;;;;;;;;;5033890;28;20053;-71
2022/02/10 23:45:55;;;;;;;4.18;1.40;;;;;;;;;;5034433;28;20473;-71
2022/02/10 23:48:21;;;;;;;5.35;1.48;;;;;;;;;;5050333;28;20461;-72
2022/02/10 23:50:47;;;;;;;4.85;1.20;;;;;;;;;;5053964;28;20021;-73
2022/02/10 23:53:13;;;;;;;5.15;1.50;;;;;;;;;;5053737;28;20386;-72
2022/02/10 23:55:41;;;;;;;5.13;1.30;;;;;;;;;;5053835;28;20028;-72
2022/02/10 23:58:24;;;;;;;7.40;1.50;;;;;;;;;;5053971;28;20024;-71
